sensor_id;sensor_type;location;lat;lon;timestamp;P1;durP1;ratioP1;P2;durP2;ratioP2
17151;SDS011;8691;50.828;4.700;2023-05-16T00:00:09;12.38;;;2.67;;
17151;SDS011;8691;50.828;4.700;2023-05-16T00:02:36;12.90;;;2.80;;
17151;SDS011;8691;50.828;4.700;2023-05-16T00:05:04;15.05;;;3.12;;
17151;SDS011;8691;50.828;4.700;2023-05-16T00:07:31;13.45;;;2.90;;
17151;SDS011;8691;50.828;4.700;2023-05-16T00:09:57;12.00;;;2.73;;
17151;SDS011;8691;50.828;4.700;2023-05-16T00:12:25;12.73;;;2.60;;
17151;SDS011;8691;50.828;4.700;2023-05-16T00:14:52;10.27;;;2.63;;
17151;SDS011;8691;50.828;4.700;2023-05-16T00:17:19;16.53;;;3.20;;
17151;SDS011;8691;50.828;4.700;2023-05-16T00:19:46;14.90;;;3.20;;
17151;SDS011;8691;50.828;4.700;2023-05-16T00:22:13;15.37;;;3.10;;
17151;SDS011;8691;50.828;4.700;2023-05-16T00:24:42;12.50;;;2.70;;
17151;SDS011;8691;50.828;4.700;2023-05-16T00:27:09;13.80;;;2.77;;
17151;SDS011;8691;50.828;4.700;2023-05-16T00:29:37;12.65;;;3.05;;
17151;SDS011;8691;50.828;4.700;2023-05-16T00:32:03;13.50;;;3.40;;
17151;SDS011;8691;50.828;4.700;2023-05-16T00:34:30;12.90;;;2.77;;
17151;SDS011;8691;50.828;4.700;2023-05-16T00:36:57;11.88;;;3.08;;
17151;SDS011;8691;50.828;4.700;2023-05-16T00:39:24;11.45;;;2.80;;
17151;SDS011;8691;50.828;4.700;2023-05-16T00:41:52;13.02;;;2.92;;
17151;SDS011;8691;50.828;4.700;2023-05-16T00:44:18;14.33;;;2.90;;
17151;SDS011;8691;50.828;4.700;2023-05-16T00:46:45;15.85;;;3.00;;
17151;SDS011;8691;50.828;4.700;2023-05-16T00:49:12;8.80;;;2.60;;
17151;SDS011;8691;50.828;4.700;2023-05-16T00:51:39;10.98;;;2.88;;
17151;SDS011;8691;50.828;4.700;2023-05-16T00:54:06;12.77;;;3.10;;
17151;SDS011;8691;50.828;4.700;2023-05-16T00:56:33;14.77;;;2.95;;
17151;SDS011;8691;50.828;4.700;2023-05-16T00:59:00;11.85;;;3.17;;
17151;SDS011;8691;50.828;4.700;2023-05-16T01:01:27;11.38;;;3.00;;
17151;SDS011;8691;50.828;4.700;2023-05-16T01:03:54;12.30;;;2.63;;
17151;SDS011;8691;50.828;4.700;2023-05-16T01:06:21;9.57;;;2.60;;
17151;SDS011;8691;50.828;4.700;2023-05-16T01:08:51;13.27;;;2.90;;
17151;SDS011;8691;50.828;4.700;2023-05-16T01:11:26;10.00;;;2.77;;
17151;SDS011;8691;50.828;4.700;2023-05-16T01:14:04;14.30;;;2.90;;
17151;SDS011;8691;50.828;4.700;2023-05-16T01:16:35;11.13;;;3.13;;
17151;SDS011;8691;50.828;4.700;2023-05-16T01:19:03;13.93;;;3.15;;
17151;SDS011;8691;50.828;4.700;2023-05-16T01:21:38;13.30;;;2.70;;
17151;SDS011;8691;50.828;4.700;2023-05-16T01:24:08;13.30;;;2.73;;
17151;SDS011;8691;50.828;4.700;2023-05-16T01:26:34;10.73;;;2.62;;
17151;SDS011;8691;50.828;4.700;2023-05-16T01:29:01;16.30;;;2.90;;
17151;SDS011;8691;50.828;4.700;2023-05-16T01:31:28;13.62;;;2.55;;
17151;SDS011;8691;50.828;4.700;2023-05-16T01:33:55;14.60;;;2.50;;
17151;SDS011;8691;50.828;4.700;2023-05-16T01:39:03;12.90;;;2.80;;
17151;SDS011;8691;50.828;4.700;2023-05-16T01:44:22;12.23;;;2.45;;
17151;SDS011;8691;50.828;4.700;2023-05-16T01:46:46;9.43;;;2.33;;
17151;SDS011;8691;50.828;4.700;2023-05-16T01:49:15;10.68;;;2.70;;
17151;SDS011;8691;50.828;4.700;2023-05-16T01:51:41;10.70;;;2.58;;
17151;SDS011;8691;50.828;4.700;2023-05-16T01:54:09;12.27;;;2.47;;
17151;SDS011;8691;50.828;4.700;2023-05-16T01:56:35;12.70;;;3.13;;
17151;SDS011;8691;50.828;4.700;2023-05-16T01:59:01;13.95;;;3.35;;
17151;SDS011;8691;50.828;4.700;2023-05-16T02:01:28;13.52;;;2.58;;
17151;SDS011;8691;50.828;4.700;2023-05-16T02:03:56;9.87;;;2.47;;
17151;SDS011;8691;50.828;4.700;2023-05-16T02:06:22;11.27;;;2.03;;
17151;SDS011;8691;50.828;4.700;2023-05-16T02:08:49;11.32;;;2.90;;
17151;SDS011;8691;50.828;4.700;2023-05-16T02:11:16;13.00;;;2.80;;
17151;SDS011;8691;50.828;4.700;2023-05-16T02:13:43;13.95;;;3.03;;
17151;SDS011;8691;50.828;4.700;2023-05-16T02:16:10;12.20;;;2.62;;
17151;SDS011;8691;50.828;4.700;2023-05-16T02:18:37;10.77;;;2.78;;
17151;SDS011;8691;50.828;4.700;2023-05-16T02:21:04;9.12;;;2.65;;
17151;SDS011;8691;50.828;4.700;2023-05-16T02:23:31;12.20;;;2.70;;
17151;SDS011;8691;50.828;4.700;2023-05-16T02:25:58;10.47;;;2.70;;
17151;SDS011;8691;50.828;4.700;2023-05-16T02:28:24;15.10;;;2.97;;
17151;SDS011;8691;50.828;4.700;2023-05-16T02:30:55;13.67;;;2.90;;
17151;SDS011;8691;50.828;4.700;2023-05-16T02:33:24;10.33;;;2.40;;
17151;SDS011;8691;50.828;4.700;2023-05-16T02:35:51;13.40;;;2.72;;
17151;SDS011;8691;50.828;4.700;2023-05-16T02:38:18;14.95;;;3.17;;
17151;SDS011;8691;50.828;4.700;2023-05-16T02:40:44;8.87;;;2.40;;
17151;SDS011;8691;50.828;4.700;2023-05-16T02:43:11;15.25;;;2.70;;
17151;SDS011;8691;50.828;4.700;2023-05-16T02:45:39;10.90;;;2.80;;
17151;SDS011;8691;50.828;4.700;2023-05-16T02:48:06;9.82;;;2.80;;
17151;SDS011;8691;50.828;4.700;2023-05-16T02:50:33;10.05;;;2.50;;
17151;SDS011;8691;50.828;4.700;2023-05-16T02:53:00;10.35;;;2.72;;
17151;SDS011;8691;50.828;4.700;2023-05-16T02:55:27;13.68;;;2.70;;
17151;SDS011;8691;50.828;4.700;2023-05-16T02:57:53;9.13;;;2.30;;
17151;SDS011;8691;50.828;4.700;2023-05-16T03:00:20;11.52;;;2.62;;
17151;SDS011;8691;50.828;4.700;2023-05-16T03:02:47;12.10;;;3.00;;
17151;SDS011;8691;50.828;4.700;2023-05-16T03:05:14;14.47;;;2.53;;
17151;SDS011;8691;50.828;4.700;2023-05-16T03:07:41;12.73;;;2.67;;
17151;SDS011;8691;50.828;4.700;2023-05-16T03:10:08;11.93;;;2.47;;
17151;SDS011;8691;50.828;4.700;2023-05-16T03:12:35;12.80;;;2.75;;
17151;SDS011;8691;50.828;4.700;2023-05-16T03:15:02;12.85;;;2.60;;
17151;SDS011;8691;50.828;4.700;2023-05-16T03:17:29;12.23;;;2.70;;
17151;SDS011;8691;50.828;4.700;2023-05-16T03:19:56;12.23;;;2.67;;
17151;SDS011;8691;50.828;4.700;2023-05-16T03:22:24;11.93;;;2.90;;
17151;SDS011;8691;50.828;4.700;2023-05-16T03:24:50;11.10;;;2.87;;
17151;SDS011;8691;50.828;4.700;2023-05-16T03:27:17;11.67;;;2.53;;
17151;SDS011;8691;50.828;4.700;2023-05-16T03:29:44;7.70;;;2.20;;
17151;SDS011;8691;50.828;4.700;2023-05-16T03:32:11;10.15;;;2.62;;
17151;SDS011;8691;50.828;4.700;2023-05-16T03:34:38;12.23;;;2.75;;
17151;SDS011;8691;50.828;4.700;2023-05-16T03:37:05;10.90;;;2.55;;
17151;SDS011;8691;50.828;4.700;2023-05-16T03:39:32;11.13;;;2.50;;
17151;SDS011;8691;50.828;4.700;2023-05-16T03:41:59;12.97;;;2.87;;
17151;SDS011;8691;50.828;4.700;2023-05-16T03:44:26;11.33;;;2.40;;
17151;SDS011;8691;50.828;4.700;2023-05-16T03:46:53;9.63;;;2.30;;
17151;SDS011;8691;50.828;4.700;2023-05-16T03:49:22;10.07;;;2.43;;
17151;SDS011;8691;50.828;4.700;2023-05-16T03:51:47;12.00;;;2.60;;
17151;SDS011;8691;50.828;4.700;2023-05-16T03:54:14;9.03;;;1.97;;
17151;SDS011;8691;50.828;4.700;2023-05-16T03:56:41;9.90;;;2.55;;
17151;SDS011;8691;50.828;4.700;2023-05-16T03:59:07;10.13;;;2.67;;
17151;SDS011;8691;50.828;4.700;2023-05-16T04:01:34;11.95;;;2.47;;
17151;SDS011;8691;50.828;4.700;2023-05-16T04:04:01;10.93;;;2.35;;
17151;SDS011;8691;50.828;4.700;2023-05-16T04:06:28;9.60;;;2.40;;
17151;SDS011;8691;50.828;4.700;2023-05-16T04:08:55;10.68;;;2.55;;
17151;SDS011;8691;50.828;4.700;2023-05-16T04:11:22;11.00;;;2.62;;
17151;SDS011;8691;50.828;4.700;2023-05-16T04:13:48;10.80;;;2.58;;
17151;SDS011;8691;50.828;4.700;2023-05-16T04:16:15;10.02;;;2.62;;
17151;SDS011;8691;50.828;4.700;2023-05-16T04:18:42;10.50;;;2.50;;
17151;SDS011;8691;50.828;4.700;2023-05-16T04:21:09;9.43;;;2.67;;
17151;SDS011;8691;50.828;4.700;2023-05-16T04:23:37;12.70;;;2.80;;
17151;SDS011;8691;50.828;4.700;2023-05-16T04:26:04;8.85;;;2.50;;
17151;SDS011;8691;50.828;4.700;2023-05-16T04:28:31;9.13;;;2.40;;
17151;SDS011;8691;50.828;4.700;2023-05-16T04:30:57;7.90;;;2.12;;
17151;SDS011;8691;50.828;4.700;2023-05-16T04:33:24;8.43;;;2.50;;
17151;SDS011;8691;50.828;4.700;2023-05-16T04:35:51;12.27;;;2.50;;
17151;SDS011;8691;50.828;4.700;2023-05-16T04:38:18;8.80;;;2.40;;
17151;SDS011;8691;50.828;4.700;2023-05-16T04:40:45;10.38;;;2.42;;
17151;SDS011;8691;50.828;4.700;2023-05-16T04:43:12;8.68;;;2.20;;
17151;SDS011;8691;50.828;4.700;2023-05-16T04:45:38;9.73;;;2.40;;
17151;SDS011;8691;50.828;4.700;2023-05-16T04:48:05;11.55;;;2.25;;
17151;SDS011;8691;50.828;4.700;2023-05-16T04:50:32;8.77;;;2.28;;
17151;SDS011;8691;50.828;4.700;2023-05-16T04:52:59;8.63;;;2.53;;
17151;SDS011;8691;50.828;4.700;2023-05-16T04:55:26;11.02;;;2.30;;
17151;SDS011;8691;50.828;4.700;2023-05-16T04:57:53;9.88;;;2.58;;
17151;SDS011;8691;50.828;4.700;2023-05-16T05:00:20;13.00;;;2.63;;
17151;SDS011;8691;50.828;4.700;2023-05-16T05:02:47;9.55;;;2.45;;
17151;SDS011;8691;50.828;4.700;2023-05-16T05:05:14;8.07;;;2.12;;
17151;SDS011;8691;50.828;4.700;2023-05-16T05:07:41;11.75;;;2.50;;
17151;SDS011;8691;50.828;4.700;2023-05-16T05:10:08;11.00;;;2.50;;
17151;SDS011;8691;50.828;4.700;2023-05-16T05:12:35;11.15;;;2.72;;
17151;SDS011;8691;50.828;4.700;2023-05-16T05:15:03;12.32;;;2.67;;
17151;SDS011;8691;50.828;4.700;2023-05-16T05:17:29;9.30;;;2.33;;
17151;SDS011;8691;50.828;4.700;2023-05-16T05:19:56;10.27;;;2.47;;
17151;SDS011;8691;50.828;4.700;2023-05-16T05:22:23;11.45;;;2.70;;
17151;SDS011;8691;50.828;4.700;2023-05-16T05:24:49;9.05;;;2.28;;
17151;SDS011;8691;50.828;4.700;2023-05-16T05:27:16;9.70;;;2.27;;
17151;SDS011;8691;50.828;4.700;2023-05-16T05:29:43;8.40;;;2.38;;
17151;SDS011;8691;50.828;4.700;2023-05-16T05:32:10;9.05;;;2.42;;
17151;SDS011;8691;50.828;4.700;2023-05-16T05:34:37;11.80;;;2.22;;
17151;SDS011;8691;50.828;4.700;2023-05-16T05:37:04;7.50;;;2.15;;
17151;SDS011;8691;50.828;4.700;2023-05-16T05:39:31;8.07;;;2.00;;
17151;SDS011;8691;50.828;4.700;2023-05-16T05:41:58;11.07;;;2.20;;
17151;SDS011;8691;50.828;4.700;2023-05-16T05:44:25;8.62;;;1.98;;
17151;SDS011;8691;50.828;4.700;2023-05-16T05:46:53;10.45;;;2.30;;
17151;SDS011;8691;50.828;4.700;2023-05-16T05:49:20;8.27;;;2.07;;
17151;SDS011;8691;50.828;4.700;2023-05-16T05:51:47;8.50;;;2.50;;
17151;SDS011;8691;50.828;4.700;2023-05-16T05:54:13;6.70;;;1.50;;
17151;SDS011;8691;50.828;4.700;2023-05-16T05:56:40;6.35;;;1.85;;
17151;SDS011;8691;50.828;4.700;2023-05-16T05:59:07;5.72;;;1.90;;
17151;SDS011;8691;50.828;4.700;2023-05-16T06:01:34;5.82;;;1.83;;
17151;SDS011;8691;50.828;4.700;2023-05-16T06:04:01;7.35;;;1.65;;
17151;SDS011;8691;50.828;4.700;2023-05-16T06:06:28;7.83;;;2.30;;
17151;SDS011;8691;50.828;4.700;2023-05-16T06:08:54;7.70;;;2.10;;
17151;SDS011;8691;50.828;4.700;2023-05-16T06:11:22;7.77;;;1.80;;
17151;SDS011;8691;50.828;4.700;2023-05-16T06:13:50;8.43;;;1.97;;
17151;SDS011;8691;50.828;4.700;2023-05-16T06:16:17;5.67;;;1.63;;
17151;SDS011;8691;50.828;4.700;2023-05-16T06:18:44;6.57;;;1.50;;
17151;SDS011;8691;50.828;4.700;2023-05-16T06:21:11;6.60;;;1.80;;
17151;SDS011;8691;50.828;4.700;2023-05-16T06:23:38;7.03;;;2.30;;
17151;SDS011;8691;50.828;4.700;2023-05-16T06:26:05;9.23;;;2.20;;
17151;SDS011;8691;50.828;4.700;2023-05-16T06:28:32;7.60;;;1.97;;
17151;SDS011;8691;50.828;4.700;2023-05-16T06:30:58;7.67;;;2.03;;
17151;SDS011;8691;50.828;4.700;2023-05-16T06:33:25;7.05;;;2.00;;
17151;SDS011;8691;50.828;4.700;2023-05-16T06:35:52;7.75;;;1.83;;
17151;SDS011;8691;50.828;4.700;2023-05-16T06:38:19;6.87;;;1.93;;
17151;SDS011;8691;50.828;4.700;2023-05-16T06:40:46;8.53;;;2.00;;
17151;SDS011;8691;50.828;4.700;2023-05-16T06:43:13;7.55;;;1.92;;
17151;SDS011;8691;50.828;4.700;2023-05-16T06:45:40;6.37;;;1.90;;
17151;SDS011;8691;50.828;4.700;2023-05-16T06:48:06;7.55;;;1.83;;
17151;SDS011;8691;50.828;4.700;2023-05-16T06:50:33;4.50;;;1.50;;
17151;SDS011;8691;50.828;4.700;2023-05-16T06:53:01;6.68;;;1.90;;
17151;SDS011;8691;50.828;4.700;2023-05-16T06:55:28;6.93;;;2.00;;
17151;SDS011;8691;50.828;4.700;2023-05-16T06:57:55;6.90;;;1.95;;
17151;SDS011;8691;50.828;4.700;2023-05-16T07:00:22;4.90;;;1.80;;
17151;SDS011;8691;50.828;4.700;2023-05-16T07:02:49;6.23;;;1.70;;
17151;SDS011;8691;50.828;4.700;2023-05-16T07:05:16;5.93;;;1.95;;
17151;SDS011;8691;50.828;4.700;2023-05-16T07:07:43;6.10;;;1.33;;
17151;SDS011;8691;50.828;4.700;2023-05-16T07:10:10;5.83;;;2.00;;
17151;SDS011;8691;50.828;4.700;2023-05-16T07:12:39;6.03;;;1.60;;
17151;SDS011;8691;50.828;4.700;2023-05-16T07:15:04;6.30;;;1.70;;
17151;SDS011;8691;50.828;4.700;2023-05-16T07:17:31;5.32;;;1.48;;
17151;SDS011;8691;50.828;4.700;2023-05-16T07:19:58;6.10;;;1.50;;
17151;SDS011;8691;50.828;4.700;2023-05-16T07:22:25;7.53;;;1.70;;
17151;SDS011;8691;50.828;4.700;2023-05-16T07:24:53;7.62;;;1.77;;
17151;SDS011;8691;50.828;4.700;2023-05-16T07:27:20;5.13;;;1.40;;
17151;SDS011;8691;50.828;4.700;2023-05-16T07:29:48;5.40;;;1.70;;
17151;SDS011;8691;50.828;4.700;2023-05-16T07:32:15;5.30;;;1.80;;
17151;SDS011;8691;50.828;4.700;2023-05-16T07:34:41;5.30;;;1.55;;
17151;SDS011;8691;50.828;4.700;2023-05-16T07:37:08;5.72;;;1.33;;
17151;SDS011;8691;50.828;4.700;2023-05-16T07:39:35;7.57;;;1.60;;
17151;SDS011;8691;50.828;4.700;2023-05-16T07:42:03;5.18;;;1.42;;
17151;SDS011;8691;50.828;4.700;2023-05-16T07:44:30;5.88;;;1.52;;
17151;SDS011;8691;50.828;4.700;2023-05-16T07:46:56;5.25;;;1.40;;
17151;SDS011;8691;50.828;4.700;2023-05-16T07:49:24;6.93;;;1.50;;
17151;SDS011;8691;50.828;4.700;2023-05-16T07:51:50;4.90;;;1.52;;
17151;SDS011;8691;50.828;4.700;2023-05-16T07:54:18;5.57;;;1.30;;
17151;SDS011;8691;50.828;4.700;2023-05-16T07:56:45;3.42;;;1.20;;
17151;SDS011;8691;50.828;4.700;2023-05-16T07:59:12;4.75;;;1.42;;
17151;SDS011;8691;50.828;4.700;2023-05-16T08:01:38;5.85;;;1.60;;
17151;SDS011;8691;50.828;4.700;2023-05-16T08:04:05;5.10;;;1.20;;
17151;SDS011;8691;50.828;4.700;2023-05-16T08:06:32;8.40;;;1.50;;
17151;SDS011;8691;50.828;4.700;2023-05-16T08:08:59;5.17;;;1.30;;
17151;SDS011;8691;50.828;4.700;2023-05-16T08:11:26;5.67;;;1.50;;
17151;SDS011;8691;50.828;4.700;2023-05-16T08:13:53;4.53;;;1.30;;
17151;SDS011;8691;50.828;4.700;2023-05-16T08:16:20;3.90;;;1.20;;
17151;SDS011;8691;50.828;4.700;2023-05-16T08:18:47;4.10;;;1.13;;
17151;SDS011;8691;50.828;4.700;2023-05-16T08:21:15;4.97;;;1.30;;
17151;SDS011;8691;50.828;4.700;2023-05-16T08:23:41;3.88;;;1.30;;
17151;SDS011;8691;50.828;4.700;2023-05-16T08:26:08;5.93;;;1.40;;
17151;SDS011;8691;50.828;4.700;2023-05-16T08:28:35;4.70;;;1.23;;
17151;SDS011;8691;50.828;4.700;2023-05-16T08:31:02;4.15;;;1.10;;
17151;SDS011;8691;50.828;4.700;2023-05-16T08:33:29;4.12;;;1.20;;
17151;SDS011;8691;50.828;4.700;2023-05-16T08:35:57;3.05;;;1.33;;
17151;SDS011;8691;50.828;4.700;2023-05-16T08:38:24;4.05;;;1.30;;
17151;SDS011;8691;50.828;4.700;2023-05-16T08:40:51;3.53;;;1.10;;
17151;SDS011;8691;50.828;4.700;2023-05-16T08:43:19;5.00;;;1.40;;
17151;SDS011;8691;50.828;4.700;2023-05-16T08:45:46;3.58;;;1.10;;
17151;SDS011;8691;50.828;4.700;2023-05-16T08:48:13;4.80;;;1.17;;
17151;SDS011;8691;50.828;4.700;2023-05-16T08:50:40;3.92;;;1.20;;
17151;SDS011;8691;50.828;4.700;2023-05-16T08:53:07;3.23;;;1.07;;
17151;SDS011;8691;50.828;4.700;2023-05-16T08:55:34;5.73;;;1.20;;
17151;SDS011;8691;50.828;4.700;2023-05-16T08:58:01;2.55;;;0.82;;
17151;SDS011;8691;50.828;4.700;2023-05-16T09:00:28;3.45;;;1.00;;
17151;SDS011;8691;50.828;4.700;2023-05-16T09:02:55;4.60;;;1.10;;
17151;SDS011;8691;50.828;4.700;2023-05-16T09:05:22;4.55;;;1.20;;
17151;SDS011;8691;50.828;4.700;2023-05-16T09:07:49;3.40;;;1.27;;
17151;SDS011;8691;50.828;4.700;2023-05-16T09:10:16;5.07;;;1.33;;
17151;SDS011;8691;50.828;4.700;2023-05-16T09:12:43;4.18;;;1.30;;
17151;SDS011;8691;50.828;4.700;2023-05-16T09:15:09;2.80;;;1.12;;
17151;SDS011;8691;50.828;4.700;2023-05-16T09:17:37;5.05;;;1.30;;
17151;SDS011;8691;50.828;4.700;2023-05-16T09:20:07;3.28;;;1.10;;
17151;SDS011;8691;50.828;4.700;2023-05-16T09:22:30;4.83;;;1.10;;
17151;SDS011;8691;50.828;4.700;2023-05-16T09:24:57;3.90;;;1.25;;
17151;SDS011;8691;50.828;4.700;2023-05-16T09:27:24;4.57;;;1.23;;
17151;SDS011;8691;50.828;4.700;2023-05-16T09:29:51;4.00;;;1.10;;
17151;SDS011;8691;50.828;4.700;2023-05-16T09:32:18;4.00;;;1.20;;
17151;SDS011;8691;50.828;4.700;2023-05-16T09:34:46;4.05;;;1.20;;
17151;SDS011;8691;50.828;4.700;2023-05-16T09:37:11;5.17;;;1.00;;
17151;SDS011;8691;50.828;4.700;2023-05-16T09:39:44;3.45;;;1.10;;
17151;SDS011;8691;50.828;4.700;2023-05-16T09:42:05;3.93;;;1.03;;
17151;SDS011;8691;50.828;4.700;2023-05-16T09:44:32;2.35;;;0.95;;
17151;SDS011;8691;50.828;4.700;2023-05-16T09:46:59;3.97;;;1.20;;
17151;SDS011;8691;50.828;4.700;2023-05-16T09:49:26;3.73;;;1.20;;
17151;SDS011;8691;50.828;4.700;2023-05-16T09:51:53;4.80;;;1.10;;
17151;SDS011;8691;50.828;4.700;2023-05-16T09:54:29;4.22;;;1.25;;
17151;SDS011;8691;50.828;4.700;2023-05-16T09:56:56;4.28;;;1.25;;
17151;SDS011;8691;50.828;4.700;2023-05-16T09:59:24;4.23;;;1.30;;
17151;SDS011;8691;50.828;4.700;2023-05-16T10:01:50;2.85;;;1.10;;
17151;SDS011;8691;50.828;4.700;2023-05-16T10:04:17;4.53;;;1.10;;
17151;SDS011;8691;50.828;4.700;2023-05-16T10:06:44;3.00;;;1.00;;
17151;SDS011;8691;50.828;4.700;2023-05-16T10:09:11;3.50;;;1.30;;
17151;SDS011;8691;50.828;4.700;2023-05-16T10:11:38;3.33;;;1.27;;
17151;SDS011;8691;50.828;4.700;2023-05-16T10:14:04;4.57;;;1.20;;
17151;SDS011;8691;50.828;4.700;2023-05-16T10:16:31;4.17;;;1.20;;
17151;SDS011;8691;50.828;4.700;2023-05-16T10:18:59;4.55;;;1.42;;
17151;SDS011;8691;50.828;4.700;2023-05-16T10:21:25;3.72;;;1.00;;
17151;SDS011;8691;50.828;4.700;2023-05-16T10:23:52;3.67;;;1.00;;
17151;SDS011;8691;50.828;4.700;2023-05-16T10:26:19;4.53;;;1.60;;
17151;SDS011;8691;50.828;4.700;2023-05-16T10:28:46;3.70;;;1.10;;
17151;SDS011;8691;50.828;4.700;2023-05-16T10:31:13;4.38;;;1.20;;
17151;SDS011;8691;50.828;4.700;2023-05-16T10:33:40;2.67;;;1.08;;
17151;SDS011;8691;50.828;4.700;2023-05-16T10:36:08;3.70;;;0.98;;
17151;SDS011;8691;50.828;4.700;2023-05-16T10:38:35;3.00;;;0.80;;
17151;SDS011;8691;50.828;4.700;2023-05-16T10:41:02;2.58;;;1.00;;
17151;SDS011;8691;50.828;4.700;2023-05-16T10:43:30;3.55;;;1.00;;
17151;SDS011;8691;50.828;4.700;2023-05-16T10:46:07;3.37;;;1.00;;
17151;SDS011;8691;50.828;4.700;2023-05-16T10:48:33;3.60;;;1.00;;
17151;SDS011;8691;50.828;4.700;2023-05-16T10:50:59;2.90;;;0.93;;
17151;SDS011;8691;50.828;4.700;2023-05-16T10:53:30;6.80;;;1.20;;
17151;SDS011;8691;50.828;4.700;2023-05-16T11:01:45;3.60;;;1.10;;
17151;SDS011;8691;50.828;4.700;2023-05-16T11:11:43;3.60;;;1.05;;
17151;SDS011;8691;50.828;4.700;2023-05-16T11:14:56;3.70;;;1.20;;
17151;SDS011;8691;50.828;4.700;2023-05-16T11:16:59;1.75;;;0.80;;
17151;SDS011;8691;50.828;4.700;2023-05-16T11:19:28;3.00;;;1.10;;
17151;SDS011;8691;50.828;4.700;2023-05-16T11:22:08;4.87;;;1.20;;
17151;SDS011;8691;50.828;4.700;2023-05-16T11:27:28;3.25;;;1.00;;
17151;SDS011;8691;50.828;4.700;2023-05-16T11:29:57;2.90;;;1.00;;
17151;SDS011;8691;50.828;4.700;2023-05-16T11:32:21;2.47;;;0.80;;
17151;SDS011;8691;50.828;4.700;2023-05-16T11:34:48;3.10;;;1.05;;
17151;SDS011;8691;50.828;4.700;2023-05-16T11:37:15;3.50;;;1.00;;
17151;SDS011;8691;50.828;4.700;2023-05-16T11:39:42;2.53;;;1.00;;
17151;SDS011;8691;50.828;4.700;2023-05-16T11:42:09;2.77;;;1.10;;
17151;SDS011;8691;50.828;4.700;2023-05-16T11:44:36;2.75;;;1.12;;
17151;SDS011;8691;50.828;4.700;2023-05-16T11:47:03;3.08;;;1.08;;
17151;SDS011;8691;50.828;4.700;2023-05-16T11:49:30;3.40;;;1.10;;
17151;SDS011;8691;50.828;4.700;2023-05-16T11:51:57;3.72;;;1.27;;
17151;SDS011;8691;50.828;4.700;2023-05-16T11:54:24;4.10;;;1.15;;
17151;SDS011;8691;50.828;4.700;2023-05-16T11:56:51;2.60;;;1.10;;
17151;SDS011;8691;50.828;4.700;2023-05-16T11:59:18;3.07;;;0.80;;
17151;SDS011;8691;50.828;4.700;2023-05-16T12:01:45;4.95;;;1.27;;
17151;SDS011;8691;50.828;4.700;2023-05-16T12:04:15;2.60;;;1.17;;
17151;SDS011;8691;50.828;4.700;2023-05-16T12:06:42;4.93;;;1.40;;
17151;SDS011;8691;50.828;4.700;2023-05-16T12:09:14;3.17;;;1.10;;
17151;SDS011;8691;50.828;4.700;2023-05-16T12:11:39;2.75;;;1.00;;
17151;SDS011;8691;50.828;4.700;2023-05-16T12:14:09;2.67;;;0.90;;
17151;SDS011;8691;50.828;4.700;2023-05-16T12:16:32;4.20;;;1.15;;
17151;SDS011;8691;50.828;4.700;2023-05-16T12:18:59;4.15;;;1.10;;
17151;SDS011;8691;50.828;4.700;2023-05-16T12:21:26;3.58;;;1.20;;
17151;SDS011;8691;50.828;4.700;2023-05-16T12:23:54;3.25;;;1.30;;
17151;SDS011;8691;50.828;4.700;2023-05-16T12:26:29;2.40;;;0.95;;
17151;SDS011;8691;50.828;4.700;2023-05-16T12:28:52;3.30;;;1.20;;
17151;SDS011;8691;50.828;4.700;2023-05-16T12:31:19;3.43;;;1.20;;
17151;SDS011;8691;50.828;4.700;2023-05-16T12:33:46;4.10;;;1.20;;
17151;SDS011;8691;50.828;4.700;2023-05-16T12:36:14;3.40;;;1.20;;
17151;SDS011;8691;50.828;4.700;2023-05-16T12:38:44;2.23;;;0.70;;
17151;SDS011;8691;50.828;4.700;2023-05-16T12:41:08;3.12;;;0.90;;
17151;SDS011;8691;50.828;4.700;2023-05-16T12:43:35;4.10;;;1.20;;
17151;SDS011;8691;50.828;4.700;2023-05-16T12:46:02;4.53;;;1.20;;
17151;SDS011;8691;50.828;4.700;2023-05-16T12:48:32;3.88;;;1.20;;
17151;SDS011;8691;50.828;4.700;2023-05-16T12:51:14;4.80;;;1.12;;
17151;SDS011;8691;50.828;4.700;2023-05-16T12:53:44;4.75;;;1.10;;
17151;SDS011;8691;50.828;4.700;2023-05-16T12:56:08;2.83;;;1.20;;
17151;SDS011;8691;50.828;4.700;2023-05-16T12:58:35;4.53;;;1.05;;
17151;SDS011;8691;50.828;4.700;2023-05-16T13:01:02;2.92;;;1.05;;
17151;SDS011;8691;50.828;4.700;2023-05-16T13:03:29;3.35;;;1.17;;
17151;SDS011;8691;50.828;4.700;2023-05-16T13:05:56;4.77;;;1.30;;
17151;SDS011;8691;50.828;4.700;2023-05-16T13:08:23;3.87;;;1.20;;
17151;SDS011;8691;50.828;4.700;2023-05-16T13:10:50;3.85;;;1.30;;
17151;SDS011;8691;50.828;4.700;2023-05-16T13:13:17;3.50;;;1.23;;
17151;SDS011;8691;50.828;4.700;2023-05-16T13:15:44;3.67;;;0.90;;
17151;SDS011;8691;50.828;4.700;2023-05-16T13:18:11;4.03;;;1.00;;
17151;SDS011;8691;50.828;4.700;2023-05-16T13:20:38;2.92;;;1.10;;
17151;SDS011;8691;50.828;4.700;2023-05-16T13:23:05;3.22;;;1.23;;
17151;SDS011;8691;50.828;4.700;2023-05-16T13:25:32;3.35;;;1.02;;
17151;SDS011;8691;50.828;4.700;2023-05-16T13:27:59;4.33;;;1.17;;
17151;SDS011;8691;50.828;4.700;2023-05-16T13:30:26;6.23;;;1.30;;
17151;SDS011;8691;50.828;4.700;2023-05-16T13:32:52;3.70;;;0.90;;
17151;SDS011;8691;50.828;4.700;2023-05-16T13:35:19;4.75;;;1.20;;
17151;SDS011;8691;50.828;4.700;2023-05-16T13:37:46;3.40;;;1.20;;
17151;SDS011;8691;50.828;4.700;2023-05-16T13:40:13;2.47;;;1.00;;
17151;SDS011;8691;50.828;4.700;2023-05-16T13:42:40;2.38;;;1.00;;
17151;SDS011;8691;50.828;4.700;2023-05-16T13:45:07;3.05;;;1.10;;
17151;SDS011;8691;50.828;4.700;2023-05-16T13:47:34;4.38;;;1.30;;
17151;SDS011;8691;50.828;4.700;2023-05-16T13:50:01;3.67;;;0.90;;
17151;SDS011;8691;50.828;4.700;2023-05-16T13:52:28;4.70;;;1.17;;
17151;SDS011;8691;50.828;4.700;2023-05-16T13:54:55;4.27;;;1.00;;
17151;SDS011;8691;50.828;4.700;2023-05-16T13:57:22;5.72;;;1.30;;
17151;SDS011;8691;50.828;4.700;2023-05-16T13:59:48;3.87;;;0.90;;
17151;SDS011;8691;50.828;4.700;2023-05-16T14:02:15;2.90;;;1.12;;
17151;SDS011;8691;50.828;4.700;2023-05-16T14:04:42;5.30;;;1.40;;
17151;SDS011;8691;50.828;4.700;2023-05-16T14:07:09;3.58;;;1.17;;
17151;SDS011;8691;50.828;4.700;2023-05-16T14:09:36;5.40;;;1.00;;
17151;SDS011;8691;50.828;4.700;2023-05-16T14:12:03;3.90;;;1.40;;
17151;SDS011;8691;50.828;4.700;2023-05-16T14:14:29;7.72;;;1.60;;
17151;SDS011;8691;50.828;4.700;2023-05-16T14:16:56;3.47;;;1.00;;
17151;SDS011;8691;50.828;4.700;2023-05-16T14:19:23;3.53;;;1.20;;
17151;SDS011;8691;50.828;4.700;2023-05-16T14:21:50;4.97;;;1.12;;
17151;SDS011;8691;50.828;4.700;2023-05-16T14:24:17;3.53;;;1.10;;
17151;SDS011;8691;50.828;4.700;2023-05-16T14:26:44;6.10;;;1.30;;
17151;SDS011;8691;50.828;4.700;2023-05-16T14:29:12;3.17;;;1.12;;
17151;SDS011;8691;50.828;4.700;2023-05-16T14:31:39;4.23;;;1.20;;
17151;SDS011;8691;50.828;4.700;2023-05-16T14:34:05;3.45;;;1.00;;
17151;SDS011;8691;50.828;4.700;2023-05-16T14:36:33;3.55;;;1.38;;
17151;SDS011;8691;50.828;4.700;2023-05-16T14:39:00;3.40;;;1.20;;
17151;SDS011;8691;50.828;4.700;2023-05-16T14:41:27;3.35;;;1.35;;
17151;SDS011;8691;50.828;4.700;2023-05-16T14:43:54;3.67;;;1.40;;
17151;SDS011;8691;50.828;4.700;2023-05-16T14:46:20;4.03;;;1.20;;
17151;SDS011;8691;50.828;4.700;2023-05-16T14:48:47;4.20;;;1.33;;
17151;SDS011;8691;50.828;4.700;2023-05-16T14:51:15;6.43;;;1.40;;
17151;SDS011;8691;50.828;4.700;2023-05-16T14:53:42;4.72;;;1.17;;
17151;SDS011;8691;50.828;4.700;2023-05-16T14:56:09;4.07;;;1.62;;
17151;SDS011;8691;50.828;4.700;2023-05-16T14:58:36;4.80;;;1.30;;
17151;SDS011;8691;50.828;4.700;2023-05-16T15:01:02;3.97;;;1.10;;
17151;SDS011;8691;50.828;4.700;2023-05-16T15:03:29;5.22;;;1.27;;
17151;SDS011;8691;50.828;4.700;2023-05-16T15:05:56;3.62;;;1.27;;
17151;SDS011;8691;50.828;4.700;2023-05-16T15:08:23;4.30;;;1.23;;
17151;SDS011;8691;50.828;4.700;2023-05-16T15:10:49;5.40;;;2.00;;
17151;SDS011;8691;50.828;4.700;2023-05-16T15:13:16;5.00;;;1.30;;
17151;SDS011;8691;50.828;4.700;2023-05-16T15:15:43;3.50;;;1.80;;
17151;SDS011;8691;50.828;4.700;2023-05-16T15:18:10;3.00;;;1.23;;